Time;durP1;ratioP1;P1;durP2;ratioP2;P2;SDS_P1;SDS_P2;PMS_P1;PMS_P2;Temp;Humidity;BMP_temperature;BMP_pressure;BME280_temperature;BME280_humidity;BME280_pressure;Samples;Min_cycle;Max_cycle;Signal;HPM_P1;HPM_P2
2021/09/23 00:00:36;;;;;;;17.07;11.87;;;12.70;1.00;;;;;;5087882;27;20469;-78
2021/09/23 00:03:11;;;;;;;18.03;11.47;;;12.60;1.00;;;;;;5085439;28;20459;-78
2021/09/23 00:05:40;;;;;;;18.00;12.23;;;12.60;1.00;;;;;;5081057;27;20465;-78
2021/09/23 00:08:08;;;;;;;14.83;11.83;;;12.60;1.00;;;;;;5087718;28;20464;-78
2021/09/23 00:10:38;;;;;;;16.13;12.77;;;12.60;1.00;;;;;;5086944;28;20590;-78
2021/09/23 00:13:05;;;;;;;19.00;12.60;;;12.60;1.00;;;;;;5085441;28;20460;-78
2021/09/23 00:15:34;;;;;;;15.97;13.30;;;12.60;1.00;;;;;;5092349;28;20521;-79
2021/09/23 00:18:03;;;;;;;15.40;13.00;;;12.50;1.00;;;;;;5091199;28;20453;-79
2021/09/23 00:20:34;;;;;;;19.80;11.97;;;12.50;1.00;;;;;;5086934;28;20442;-78
2021/09/23 00:23:02;;;;;;;14.10;12.03;;;12.50;1.00;;;;;;5086733;27;20422;-79
2021/09/23 00:25:28;;;;;;;19.30;12.37;;;12.50;1.00;;;;;;5090123;28;20478;-79
2021/09/23 00:27:57;;;;;;;16.50;12.67;;;12.50;1.00;;;;;;5086756;27;20445;-79
2021/09/23 00:30:25;;;;;;;14.97;13.17;;;12.50;1.00;;;;;;5086002;28;20458;-79
2021/09/23 00:32:52;;;;;;;15.63;12.80;;;12.40;1.00;;;;;;5084774;28;20521;-79
2021/09/23 00:35:19;;;;;;;14.90;13.30;;;12.40;1.00;;;;;;5086833;28;20917;-78
2021/09/23 00:37:46;;;;;;;14.23;11.93;;;12.40;1.00;;;;;;5085427;27;20443;-79
2021/09/23 00:40:17;;;;;;;16.53;11.80;;;12.30;1.00;;;;;;5086912;28;20448;-78
2021/09/23 00:42:47;;;;;;;16.67;12.60;;;12.30;1.00;;;;;;5088805;28;20466;-78
2021/09/23 00:45:15;;;;;;;20.90;12.43;;;12.30;1.00;;;;;;5076415;27;20455;-78
2021/09/23 00:47:42;;;;;;;21.50;13.20;;;12.20;1.00;;;;;;5082587;28;20455;-78
2021/09/23 00:50:10;;;;;;;15.73;13.77;;;12.20;1.00;;;;;;5085635;27;20447;-78
2021/09/23 00:52:38;;;;;;;22.20;13.00;;;12.20;1.00;;;;;;5083543;27;20454;-77
2021/09/23 00:55:06;;;;;;;19.70;13.80;;;12.20;1.00;;;;;;5082775;28;20464;-77
2021/09/23 00:57:34;;;;;;;15.30;13.37;;;12.10;1.00;;;;;;5089685;27;20479;-77
2021/09/23 01:00:01;;;;;;;17.87;13.03;;;12.10;1.00;;;;;;5104039;28;21299;-78
2021/09/23 01:02:28;;;;;;;18.10;14.40;;;12.10;1.00;;;;;;5093116;28;21121;-78
2021/09/23 01:04:54;;;;;;;16.40;13.80;;;12.10;1.00;;;;;;5086129;28;20454;-78
2021/09/23 01:07:22;;;;;;;17.43;14.40;;;12.10;1.00;;;;;;5087221;27;20437;-78
2021/09/23 01:09:51;;;;;;;18.60;14.33;;;12.10;1.00;;;;;;5076220;27;22253;-77
2021/09/23 01:12:19;;;;;;;19.50;14.07;;;12.00;1.00;;;;;;5086324;28;20529;-79
2021/09/23 01:14:47;;;;;;;16.77;13.60;;;12.00;1.00;;;;;;5088208;27;20462;-79
2021/09/23 01:17:14;;;;;;;16.40;14.57;;;11.90;1.00;;;;;;5088222;28;21393;-77
2021/09/23 01:19:43;;;;;;;18.63;16.70;;;12.00;1.00;;;;;;5087015;28;20457;-78
2021/09/23 01:22:13;;;;;;;17.03;15.27;;;11.90;1.00;;;;;;5086008;28;21359;-78
2021/09/23 01:24:40;;;;;;;17.10;15.20;;;11.90;1.00;;;;;;5080818;28;20469;-78
2021/09/23 01:27:08;;;;;;;21.67;15.07;;;11.90;1.00;;;;;;5076116;27;21090;-78
2021/09/23 01:29:36;;;;;;;18.20;14.70;;;11.90;1.00;;;;;;5080261;27;20445;-78
2021/09/23 01:32:05;;;;;;;21.87;16.23;;;11.80;1.00;;;;;;5082461;27;20486;-78
2021/09/23 01:34:33;;;;;;;17.60;14.20;;;11.80;1.00;;;;;;5081833;27;20498;-78
2021/09/23 01:36:59;;;;;;;18.90;16.80;;;11.70;1.00;;;;;;5083530;27;20438;-78
2021/09/23 01:39:29;;;;;;;19.67;16.67;;;11.70;1.00;;;;;;5079056;27;20452;-78
2021/09/23 01:41:57;;;;;;;21.60;16.53;;;11.60;1.00;;;;;;5085311;27;20458;-78
2021/09/23 01:44:24;;;;;;;18.90;16.00;;;11.60;1.00;;;;;;5080824;27;20554;-79
2021/09/23 01:46:51;;;;;;;22.10;17.50;;;11.60;1.00;;;;;;5080940;27;20597;-79
2021/09/23 01:49:17;;;;;;;20.07;17.27;;;11.60;1.00;;;;;;5079125;28;20501;-78
2021/09/23 01:51:44;;;;;;;20.27;17.67;;;11.60;1.00;;;;;;5086006;27;20412;-78
2021/09/23 01:54:11;;;;;;;22.90;17.40;;;11.60;1.00;;;;;;5081951;28;21235;-77
2021/09/23 01:56:39;;;;;;;20.53;16.23;;;11.60;1.00;;;;;;5077074;27;20476;-77
2021/09/23 01:59:05;;;;;;;21.67;17.33;;;11.50;1.00;;;;;;5077647;28;20856;-78
2021/09/23 02:01:32;;;;;;;28.20;19.57;;;11.50;1.00;;;;;;5082313;28;20689;-78
2021/09/23 02:03:59;;;;;;;22.30;18.07;;;11.50;1.00;;;;;;5081692;28;20458;-78
2021/09/23 02:06:26;;;;;;;20.83;18.40;;;11.50;1.00;;;;;;5084815;28;20474;-78
2021/09/23 02:08:53;;;;;;;22.73;19.47;;;11.50;1.00;;;;;;5085466;27;20425;-77
2021/09/23 02:11:20;;;;;;;24.60;19.87;;;11.50;1.00;;;;;;5091062;28;20450;-78
2021/09/23 02:13:48;;;;;;;24.60;18.77;;;11.40;1.00;;;;;;5083278;27;20454;-78
2021/09/23 02:16:15;;;;;;;28.90;20.20;;;11.40;1.00;;;;;;5086908;27;20491;-78
2021/09/23 02:18:41;;;;;;;23.20;20.57;;;11.40;1.00;;;;;;5090672;27;20592;-78
2021/09/23 02:21:08;;;;;;;24.17;21.23;;;11.40;1.00;;;;;;5084350;27;20458;-78
2021/09/23 02:23:35;;;;;;;26.80;21.53;;;11.40;1.00;;;;;;5089114;27;20457;-78
2021/09/23 02:26:01;;;;;;;24.60;20.70;;;11.40;1.00;;;;;;5089414;27;20473;-78
2021/09/23 02:28:29;;;;;;;30.00;21.47;;;11.40;1.00;;;;;;5091038;27;20439;-78
2021/09/23 02:30:58;;;;;;;26.33;23.67;;;11.40;1.00;;;;;;5087128;28;20469;-78
2021/09/23 02:33:24;;;;;;;25.47;22.60;;;11.30;1.00;;;;;;5089619;28;20462;-78
2021/09/23 02:35:51;;;;;;;25.53;22.10;;;11.30;1.00;;;;;;5089401;28;20547;-78
2021/09/23 02:38:18;;;;;;;23.47;21.10;;;11.30;1.00;;;;;;5088711;28;21340;-77
2021/09/23 02:40:46;;;;;;;25.27;22.13;;;11.30;1.00;;;;;;5087387;27;20455;-77
2021/09/23 02:43:13;;;;;;;29.87;23.13;;;11.40;1.00;;;;;;5086119;27;20460;-79
2021/09/23 02:45:40;;;;;;;28.53;23.90;;;11.30;1.00;;;;;;5082972;28;20445;-77
2021/09/23 02:48:08;;;;;;;27.73;24.70;;;11.30;1.00;;;;;;5091958;27;20444;-77
2021/09/23 02:50:35;;;;;;;26.50;23.70;;;11.20;1.00;;;;;;5090825;27;20461;-77
2021/09/23 02:53:01;;;;;;;28.30;24.10;;;11.20;1.00;;;;;;5095178;27;20450;-77
2021/09/23 02:55:28;;;;;;;25.10;22.40;;;11.20;1.00;;;;;;5089747;28;20449;-77
2021/09/23 02:57:55;;;;;;;29.83;23.60;;;11.20;1.00;;;;;;5090371;27;20460;-78
2021/09/23 03:00:21;;;;;;;31.03;24.60;;;11.20;1.00;;;;;;5091913;28;20454;-77
2021/09/23 03:02:48;;;;;;;25.63;22.77;;;11.10;1.00;;;;;;5095624;28;20967;-78
2021/09/23 03:05:17;;;;;;;32.63;24.63;;;11.10;1.00;;;;;;5104008;28;21379;-78
2021/09/23 03:07:43;;;;;;;28.50;23.80;;;11.00;1.00;;;;;;5087336;27;20464;-78
2021/09/23 03:10:11;;;;;;;27.93;24.23;;;11.00;1.00;;;;;;5089809;28;20453;-78
2021/09/23 03:12:38;;;;;;;30.60;23.90;;;11.00;1.00;;;;;;5088222;27;20575;-78
2021/09/23 03:15:05;;;;;;;27.27;24.37;;;11.00;1.00;;;;;;5092863;27;20470;-79
2021/09/23 03:17:32;;;;;;;31.83;26.23;;;10.90;1.00;;;;;;5086552;27;20454;-80
2021/09/23 03:19:58;;;;;;;27.67;23.70;;;10.90;1.00;;;;;;5081260;27;20414;-78
2021/09/23 03:22:27;;;;;;;33.07;24.27;;;10.90;1.00;;;;;;5084952;27;20449;-79
2021/09/23 03:24:54;;;;;;;32.23;24.60;;;10.90;1.00;;;;;;5089304;28;20588;-79
2021/09/23 03:27:21;;;;;;;29.00;23.97;;;10.90;1.00;;;;;;5088662;27;20414;-79
2021/09/23 03:29:48;;;;;;;32.17;25.50;;;10.90;1.00;;;;;;5090505;27;20527;-79
2021/09/23 03:32:15;;;;;;;30.83;24.37;;;10.80;1.00;;;;;;5104549;27;20507;-80
2021/09/23 03:34:42;;;;;;;31.30;25.17;;;10.90;1.00;;;;;;5099506;27;20468;-79
2021/09/23 03:37:08;;;;;;;34.33;24.67;;;10.80;1.00;;;;;;5097771;27;20471;-80
2021/09/23 03:39:36;;;;;;;33.30;25.93;;;10.80;1.00;;;;;;5105848;27;20451;-79
2021/09/23 03:42:04;;;;;;;30.67;25.20;;;10.80;1.00;;;;;;5109561;28;20457;-78
2021/09/23 03:44:30;;;;;;;35.50;25.73;;;10.80;1.00;;;;;;5109589;28;20447;-79
2021/09/23 03:46:57;;;;;;;29.07;25.87;;;10.80;1.00;;;;;;5107130;28;20534;-79
2021/09/23 03:49:24;;;;;;;31.70;25.83;;;10.80;1.00;;;;;;5115642;27;20473;-79
2021/09/23 03:51:51;;;;;;;30.27;25.80;;;10.80;1.00;;;;;;5104282;27;20534;-79
2021/09/23 03:54:18;;;;;;;31.77;28.33;;;10.80;1.00;;;;;;5107018;28;20446;-80
2021/09/23 03:56:46;;;;;;;33.23;25.63;;;10.80;1.00;;;;;;5105313;27;20454;-80
2021/09/23 03:59:12;;;;;;;34.27;26.93;;;10.70;1.00;;;;;;5106619;28;20468;-79
2021/09/23 04:01:41;;;;;;;32.37;27.30;;;10.80;1.00;;;;;;5103214;27;20636;-79
2021/09/23 04:04:07;;;;;;;34.17;27.17;;;10.70;1.00;;;;;;5110336;27;20534;-78
2021/09/23 04:06:38;;;;;;;36.23;27.60;;;10.70;1.00;;;;;;5110084;27;20525;-78
2021/09/23 04:09:05;;;;;;;34.30;29.90;;;10.70;1.00;;;;;;5107914;28;20419;-79
2021/09/23 04:11:32;;;;;;;34.57;30.87;;;10.70;1.00;;;;;;5108611;28;20510;-79
2021/09/23 04:14:00;;;;;;;34.30;28.63;;;10.70;1.00;;;;;;5116028;27;20409;-79
2021/09/23 04:16:26;;;;;;;37.23;30.80;;;10.70;1.00;;;;;;5110034;27;20462;-78
2021/09/23 04:18:53;;;;;;;40.63;32.00;;;10.70;1.00;;;;;;5105052;27;20534;-79
2021/09/23 04:21:20;;;;;;;36.90;32.00;;;10.70;1.00;;;;;;5104855;28;20446;-78
2021/09/23 04:23:46;;;;;;;40.93;32.00;;;10.70;1.00;;;;;;5104959;28;20464;-78
2021/09/23 04:26:15;;;;;;;42.00;31.97;;;10.70;1.00;;;;;;5107175;27;20582;-80
2021/09/23 04:28:43;;;;;;;41.77;33.10;;;10.70;1.00;;;;;;5130367;27;20434;-79
2021/09/23 04:34:04;;;;;;;46.47;36.27;;;10.70;1.00;;;;;;5119012;28;20477;-79
2021/09/23 04:36:31;;;;;;;43.83;33.57;;;10.70;1.00;;;;;;5114847;28;20418;-75
2021/09/23 04:38:57;;;;;;;43.27;33.27;;;10.70;1.00;;;;;;5126715;28;20441;-78
2021/09/23 04:41:29;;;;;;;43.73;33.90;;;10.70;1.00;;;;;;5126523;27;20521;-78
2021/09/23 04:43:56;;;;;;;42.47;36.13;;;10.70;1.00;;;;;;5133757;28;20461;-78
2021/09/23 04:46:25;;;;;;;49.60;37.63;;;10.80;1.00;;;;;;5133586;27;20448;-77
2021/09/23 04:48:54;;;;;;;44.50;35.37;;;10.90;1.00;;;;;;5135210;27;20408;-78
2021/09/23 04:54:06;;;;;;;45.43;36.57;;;11.10;1.00;;;;;;5132611;27;20404;-78
2021/09/23 04:56:33;;;;;;;46.40;37.90;;;11.10;1.00;;;;;;5130741;27;20429;-79
2021/09/23 04:59:01;;;;;;;53.63;38.57;;;11.10;1.00;;;;;;5129910;27;20501;-79
2021/09/23 05:01:29;;;;;;;48.87;40.57;;;11.10;1.00;;;;;;5131446;27;20651;-78
2021/09/23 05:04:04;;;;;;;46.90;39.53;;;11.10;1.00;;;;;;5131850;28;21025;-78
2021/09/23 05:06:31;;;;;;;45.60;36.90;;;11.10;1.00;;;;;;5131807;27;20482;-77
2021/09/23 05:09:01;;;;;;;50.13;38.43;;;11.10;1.00;;;;;;5132592;27;20431;-77
2021/09/23 05:11:28;;;;;;;46.50;38.80;;;11.20;1.00;;;;;;5132426;27;20433;-77
2021/09/23 05:13:55;;;;;;;51.63;39.50;;;11.20;1.00;;;;;;5123095;27;20421;-78
2021/09/23 05:16:21;;;;;;;52.70;40.10;;;11.20;1.00;;;;;;5130414;27;20472;-78
2021/09/23 05:18:49;;;;;;;55.93;41.73;;;11.20;1.00;;;;;;5124967;27;20438;-77
2021/09/23 05:21:16;;;;;;;51.30;38.03;;;11.20;1.00;;;;;;5131273;27;20433;-77
2021/09/23 05:23:43;;;;;;;50.73;40.97;;;11.20;1.00;;;;;;5128711;27;20446;-79
2021/09/23 05:26:09;;;;;;;53.60;39.77;;;11.20;1.00;;;;;;5129076;27;20512;-81
2021/09/23 05:28:37;;;;;;;55.97;40.50;;;11.20;1.00;;;;;;5127683;27;20509;-79
2021/09/23 05:31:03;;;;;;;50.30;39.47;;;11.30;1.00;;;;;;5128304;28;20437;-78
2021/09/23 05:33:30;;;;;;;51.87;39.80;;;11.30;1.00;;;;;;5129057;27;20398;-79
2021/09/23 05:35:58;;;;;;;53.30;41.70;;;11.40;1.00;;;;;;5126210;27;20603;-80
2021/09/23 05:38:26;;;;;;;53.10;40.47;;;11.40;1.00;;;;;;5125897;28;20592;-79
2021/09/23 05:40:53;;;;;;;48.90;39.20;;;11.50;1.00;;;;;;5129661;27;20430;-80
2021/09/23 05:43:19;;;;;;;49.13;39.20;;;11.50;1.00;;;;;;5131261;27;20414;-79
2021/09/23 05:45:46;;;;;;;54.57;41.37;;;11.60;1.00;;;;;;5128683;28;20436;-80
2021/09/23 05:48:13;;;;;;;51.33;40.53;;;11.60;1.00;;;;;;5119362;28;21185;-80
2021/09/23 05:50:39;;;;;;;50.13;41.27;;;11.70;1.00;;;;;;5125795;27;20473;-79
2021/09/23 05:53:07;;;;;;;53.57;38.90;;;11.80;1.00;;;;;;5123400;27;20452;-79
2021/09/23 05:55:35;;;;;;;49.63;38.93;;;11.80;1.00;;;;;;5123793;28;20496;-79
2021/09/23 05:58:02;;;;;;;49.00;39.93;;;11.90;1.00;;;;;;5119952;27;20439;-78
2021/09/23 06:00:29;;;;;;;44.50;35.90;;;11.90;1.00;;;;;;5122025;27;20454;-78
2021/09/23 06:02:56;;;;;;;44.50;37.60;;;12.00;1.00;;;;;;5116376;27;20415;-77
2021/09/23 06:05:22;;;;;;;49.90;39.03;;;12.10;1.00;;;;;;5115322;28;20434;-79
2021/09/23 06:07:49;;;;;;;49.57;39.40;;;12.20;1.00;;;;;;5113676;28;20402;-79
2021/09/23 06:10:17;;;;;;;42.97;35.70;;;12.30;1.00;;;;;;5107616;27;20544;-77
2021/09/23 06:12:44;;;;;;;41.70;37.30;;;12.30;1.00;;;;;;5103792;28;20453;-78
2021/09/23 06:15:12;;;;;;;42.30;36.00;;;12.40;1.00;;;;;;5099220;27;20987;-77
2021/09/23 06:17:41;;;;;;;44.43;36.20;;;12.40;1.00;;;;;;5101692;28;20500;-78
2021/09/23 06:20:10;;;;;;;43.97;34.97;;;12.50;1.00;;;;;;5099969;27;20460;-78
2021/09/23 06:22:37;;;;;;;40.23;35.23;;;12.50;1.00;;;;;;5102742;28;20477;-78
2021/09/23 06:25:05;;;;;;;43.67;33.53;;;12.50;1.00;;;;;;5098859;27;20527;-78
2021/09/23 06:27:33;;;;;;;41.70;32.70;;;12.50;1.00;;;;;;5100771;27;20492;-78
2021/09/23 06:29:59;;;;;;;39.70;33.43;;;12.60;1.00;;;;;;5098324;27;20463;-78
2021/09/23 06:32:26;;;;;;;36.37;32.40;;;12.70;1.00;;;;;;5108292;27;20458;-78
2021/09/23 06:34:53;;;;;;;37.87;32.40;;;12.80;1.00;;;;;;5096165;27;20742;-77
2021/09/23 06:37:20;;;;;;;36.80;31.53;;;12.80;1.00;;;;;;5101501;27;20442;-79
2021/09/23 06:39:47;;;;;;;40.13;34.30;;;12.90;1.00;;;;;;5102113;27;21271;-78
2021/09/23 06:42:16;;;;;;;35.93;32.10;;;13.00;1.00;;;;;;5098939;28;21698;-79
2021/09/23 06:44:44;;;;;;;41.53;34.87;;;13.10;1.00;;;;;;5098831;27;20478;-78
2021/09/23 06:47:11;;;;;;;41.10;34.77;;;13.30;1.00;;;;;;5098550;27;20489;-78
2021/09/23 06:49:37;;;;;;;35.93;32.00;;;13.30;1.00;;;;;;5095780;28;20454;-78
2021/09/23 06:52:05;;;;;;;37.07;33.17;;;13.40;1.00;;;;;;5102536;27;20434;-78
2021/09/23 06:54:31;;;;;;;37.90;33.83;;;13.40;1.00;;;;;;5098500;28;20544;-78
2021/09/23 06:56:59;;;;;;;39.73;33.00;;;13.40;1.00;;;;;;5102379;28;20462;-78
2021/09/23 06:59:26;;;;;;;38.93;33.60;;;13.40;1.00;;;;;;5095719;28;20507;-80
2021/09/23 07:01:54;;;;;;;42.87;34.90;;;13.50;1.00;;;;;;5093837;28;20458;-80
2021/09/23 07:04:21;;;;;;;38.07;33.47;;;13.60;1.00;;;;;;5090435;27;20532;-80
2021/09/23 07:06:47;;;;;;;43.73;34.60;;;13.70;1.00;;;;;;5093906;27;20442;-78
2021/09/23 07:09:14;;;;;;;41.47;35.80;;;13.80;1.00;;;;;;5093905;27;20424;-79
2021/09/23 07:11:41;;;;;;;39.60;35.23;;;13.90;1.00;;;;;;5090632;28;20443;-79
2021/09/23 07:14:07;;;;;;;43.70;35.50;;;13.90;1.00;;;;;;5095059;27;21330;-80
2021/09/23 07:16:34;;;;;;;42.13;35.43;;;13.90;1.00;;;;;;5094788;27;20466;-79
2021/09/23 07:19:02;;;;;;;42.30;34.67;;;13.90;1.00;;;;;;5092064;27;20464;-78
2021/09/23 07:21:29;;;;;;;43.40;36.43;;;13.80;1.00;;;;;;5099661;28;20426;-79
2021/09/23 07:23:56;;;;;;;41.67;35.60;;;13.90;1.00;;;;;;5092689;27;20555;-79
2021/09/23 07:26:23;;;;;;;40.67;35.77;;;14.00;1.00;;;;;;5095782;28;20500;-78
2021/09/23 07:28:50;;;;;;;46.07;35.73;;;14.10;1.00;;;;;;5095610;27;21311;-79
2021/09/23 07:31:16;;;;;;;38.10;33.37;;;14.30;1.00;;;;;;5096888;27;20928;-80
2021/09/23 07:33:44;;;;;;;42.33;34.80;;;14.50;1.00;;;;;;5089118;28;20417;-78
2021/09/23 07:36:13;;;;;;;45.80;37.03;;;14.70;1.00;;;;;;5091464;28;20556;-78
2021/09/23 07:38:39;;;;;;;41.47;35.83;;;14.80;1.00;;;;;;5091491;28;21040;-79
2021/09/23 07:41:06;;;;;;;38.00;32.83;;;14.80;1.00;;;;;;5085666;27;20450;-79
2021/09/23 07:43:33;;;;;;;39.63;33.67;;;14.90;1.00;;;;;;5090824;27;20485;-77
2021/09/23 07:46:00;;;;;;;37.53;32.60;;;14.90;1.00;;;;;;5087611;28;20439;-80
2021/09/23 07:48:26;;;;;;;38.57;33.80;;;15.10;1.00;;;;;;5089235;28;20508;-79
2021/09/23 07:50:53;;;;;;;40.67;33.30;;;15.20;1.00;;;;;;5091394;27;20566;-78
2021/09/23 07:53:21;;;;;;;38.60;31.87;;;15.40;1.00;;;;;;5088683;27;20446;-80
2021/09/23 07:55:48;;;;;;;37.47;33.67;;;15.50;1.00;;;;;;5079065;28;20477;-78
2021/09/23 07:58:15;;;;;;;38.40;32.27;;;15.60;1.00;;;;;;5074725;28;20501;-78
2021/09/23 08:00:42;;;;;;;36.67;31.97;;;15.80;1.00;;;;;;5078111;28;21262;-76
2021/09/23 08:03:08;;;;;;;37.40;31.10;;;16.00;1.00;;;;;;5078547;27;21039;-77
2021/09/23 08:05:35;;;;;;;36.50;29.97;;;16.20;1.00;;;;;;5079464;28;20453;-77
2021/09/23 08:08:02;;;;;;;36.30;31.13;;;16.30;1.00;;;;;;5076786;28;20588;-79
2021/09/23 08:10:30;;;;;;;35.37;31.70;;;16.40;1.00;;;;;;5080991;27;21225;-79
2021/09/23 08:12:57;;;;;;;35.20;30.40;;;16.60;1.00;;;;;;5071707;28;20455;-78
2021/09/23 08:15:24;;;;;;;32.47;29.17;;;16.70;1.00;;;;;;5074572;27;20540;-78
2021/09/23 08:17:51;;;;;;;33.23;29.73;;;16.80;1.00;;;;;;5076198;27;20468;-78
2021/09/23 08:20:18;;;;;;;30.97;26.07;;;16.90;1.00;;;;;;5072719;27;20531;-78
2021/09/23 08:22:45;;;;;;;31.93;28.63;;;17.10;1.00;;;;;;5081581;28;20575;-77
2021/09/23 08:25:12;;;;;;;29.93;26.77;;;17.20;1.00;;;;;;5083011;28;20443;-78
2021/09/23 08:27:40;;;;;;;31.80;28.17;;;17.40;1.00;;;;;;5091147;27;20480;-78
2021/09/23 08:30:09;;;;;;;31.53;25.60;;;17.60;1.00;;;;;;5077300;28;20468;-78
2021/09/23 08:32:36;;;;;;;28.80;24.63;;;17.70;1.00;;;;;;5078073;28;20444;-78
2021/09/23 08:35:05;;;;;;;28.07;25.07;;;17.70;1.00;;;;;;5075808;27;20453;-77
2021/09/23 08:37:32;;;;;;;26.87;22.43;;;17.80;1.00;;;;;;5076851;28;20500;-81
2021/09/23 08:39:59;;;;;;;27.50;24.00;;;17.80;1.00;;;;;;5081307;28;20429;-79
2021/09/23 08:42:26;;;;;;;29.50;23.97;;;17.90;1.00;;;;;;5082089;28;20446;-78
2021/09/23 08:44:56;;;;;;;27.83;23.90;;;17.90;1.00;;;;;;5075168;28;20442;-79
2021/09/23 08:47:23;;;;;;;24.93;22.20;;;18.00;1.00;;;;;;5074746;27;20480;-79
2021/09/23 08:49:50;;;;;;;28.53;21.67;;;18.10;1.00;;;;;;5083018;27;20536;-79
2021/09/23 08:52:17;;;;;;;24.10;20.70;;;18.00;1.00;;;;;;5083187;27;20531;-79
2021/09/23 08:54:43;;;;;;;23.83;20.43;;;18.00;1.00;;;;;;5078977;27;20438;-79
2021/09/23 08:57:12;;;;;;;24.43;21.80;;;18.00;1.00;;;;;;5083129;27;21040;-78
2021/09/23 08:59:41;;;;;;;23.27;20.13;;;18.10;1.00;;;;;;5075824;27;20628;-79
2021/09/23 09:02:23;;;;;;;21.53;19.20;;;18.10;1.00;;;;;;5074491;28;20588;-80
2021/09/23 09:04:53;;;;;;;22.27;19.83;;;18.10;1.00;;;;;;5078675;28;20508;-79
2021/09/23 09:07:25;;;;;;;24.10;20.27;;;18.10;1.00;;;;;;5077802;27;20457;-78
2021/09/23 09:09:52;;;;;;;24.10;19.93;;;18.10;1.00;;;;;;5084314;28;20455;-79
2021/09/23 09:12:19;;;;;;;21.27;18.97;;;18.30;1.00;;;;;;5077214;28;20458;-78
2021/09/23 09:14:48;;;;;;;21.90;19.60;;;19.00;1.00;;;;;;5073996;27;20951;-78
2021/09/23 09:17:14;;;;;;;28.43;19.57;;;20.00;1.00;;;;;;5070345;27;20485;-77
2021/09/23 09:19:48;;;;;;;22.00;19.33;;;20.70;1.00;;;;;;5077667;28;20984;-78
2021/09/23 09:22:16;;;;;;;20.50;18.30;;;20.90;1.00;;;;;;5073954;27;20680;-79
2021/09/23 09:24:55;;;;;;;20.73;17.60;;;20.70;1.00;;;;;;5082813;28;21253;-78
2021/09/23 09:27:30;;;;;;;19.20;17.17;;;20.90;1.00;;;;;;5074686;28;20419;-78
2021/09/23 09:29:58;;;;;;;19.97;17.97;;;21.40;1.00;;;;;;5072450;28;21825;-77
2021/09/23 09:32:46;;;;;;;18.13;16.20;;;21.40;1.00;;;;;;5076148;27;20452;-79
2021/09/23 09:35:17;;;;;;;19.30;17.30;;;21.30;1.00;;;;;;5071584;27;20967;-79
2021/09/23 09:37:46;;;;;;;21.13;17.70;;;21.70;1.00;;;;;;5078370;28;20490;-78
2021/09/23 09:40:19;;;;;;;19.90;16.93;;;22.00;1.00;;;;;;5080839;28;20454;-78
2021/09/23 09:42:49;;;;;;;18.90;16.07;;;22.30;1.00;;;;;;5074472;28;20435;-78
2021/09/23 09:45:18;;;;;;;16.87;15.20;;;22.20;1.00;;;;;;5071721;28;20512;-77
2021/09/23 09:47:52;;;;;;;17.20;15.40;;;22.00;1.00;;;;;;5074935;27;20455;-77
2021/09/23 09:50:22;;;;;;;18.27;15.80;;;22.00;1.00;;;;;;5077353;28;20508;-79
2021/09/23 09:52:50;;;;;;;17.07;15.27;;;22.30;1.00;;;;;;5074540;28;21058;-78
2021/09/23 09:55:18;;;;;;;18.50;16.60;;;22.50;1.00;;;;;;5076280;27;20588;-76
2021/09/23 09:57:47;;;;;;;17.27;15.57;;;22.30;1.00;;;;;;5074883;28;20457;-78
2021/09/23 10:00:16;;;;;;;18.87;14.47;;;22.30;1.00;;;;;;5072812;28;20926;-76
2021/09/23 10:02:43;;;;;;;18.63;16.73;;;22.30;1.00;;;;;;5073063;28;20964;-77
2021/09/23 10:05:12;;;;;;;21.17;16.70;;;22.00;1.00;;;;;;5080423;28;20450;-78
2021/09/23 10:07:44;;;;;;;20.57;16.37;;;21.70;1.00;;;;;;5068912;28;20484;-78
2021/09/23 10:10:11;;;;;;;15.90;14.20;;;21.60;1.00;;;;;;5074618;27;20538;-78
2021/09/23 10:12:41;;;;;;;15.90;14.30;;;22.00;1.00;;;;;;5074762;27;20433;-79
2021/09/23 10:15:09;;;;;;;24.80;14.63;;;22.90;1.00;;;;;;5079238;27;20462;-79
2021/09/23 10:17:36;;;;;;;15.10;13.70;;;23.80;1.00;;;;;;5076003;27;20458;-78
2021/09/23 10:20:06;;;;;;;15.10;13.37;;;24.30;1.00;;;;;;5073976;28;21507;-77
2021/09/23 10:22:34;;;;;;;16.30;14.50;;;24.80;1.00;;;;;;5074979;28;20586;-77
2021/09/23 10:25:05;;;;;;;16.60;14.80;;;24.30;1.00;;;;;;5077605;27;21001;-80
2021/09/23 10:30:17;;;;;;;20.00;14.57;;;23.10;1.00;;;;;;5080485;28;21568;-78
2021/09/23 10:32:44;;;;;;;16.00;14.10;;;23.00;1.00;;;;;;5075182;27;20447;-78
2021/09/23 10:35:13;;;;;;;17.00;15.20;;;22.40;1.00;;;;;;5083065;27;21588;-78
2021/09/23 10:37:41;;;;;;;17.03;15.33;;;21.90;1.00;;;;;;5081381;28;20471;-78
2021/09/23 10:40:11;;;;;;;15.70;13.83;;;21.60;1.00;;;;;;5081888;28;21016;-79
2021/09/23 10:42:39;;;;;;;15.33;13.73;;;21.50;1.00;;;;;;5091998;28;21037;-78
2021/09/23 10:45:06;;;;;;;15.43;13.50;;;21.30;1.00;;;;;;5095062;28;20453;-78
2021/09/23 10:47:35;;;;;;;14.67;13.00;;;21.10;1.00;;;;;;5092978;27;20662;-78
2021/09/23 10:50:03;;;;;;;15.57;13.00;;;21.30;1.00;;;;;;5098066;28;20453;-78
2021/09/23 10:52:31;;;;;;;14.87;13.30;;;21.50;1.00;;;;;;5099099;27;21034;-77
2021/09/23 10:54:59;;;;;;;13.60;12.00;;;21.40;1.00;;;;;;5090835;27;20466;-78
2021/09/23 10:57:28;;;;;;;15.90;12.30;;;21.20;1.00;;;;;;5095346;28;20644;-78
2021/09/23 10:59:56;;;;;;;12.63;11.30;;;21.00;1.00;;;;;;5096605;28;20590;-81
2021/09/23 11:02:25;;;;;;;12.27;11.07;;;21.00;1.00;;;;;;5097618;28;21451;-78
2021/09/23 11:04:57;;;;;;;12.10;10.87;;;21.10;1.00;;;;;;5096186;27;20448;-81
2021/09/23 11:07:30;;;;;;;13.73;11.00;;;21.20;1.00;;;;;;5096410;27;20466;-79
2021/09/23 11:10:10;;;;;;;12.77;10.30;;;21.70;1.00;;;;;;5096591;28;20450;-81
2021/09/23 11:12:41;;;;;;;12.17;9.90;;;22.50;1.00;;;;;;5093317;28;21258;-78
2021/09/23 11:15:10;;;;;;;11.93;9.77;;;23.10;1.00;;;;;;5095813;28;20465;-78
2021/09/23 11:17:38;;;;;;;12.10;9.83;;;23.00;1.00;;;;;;5094618;27;20510;-79
2021/09/23 11:20:08;;;;;;;12.80;10.67;;;22.70;1.00;;;;;;5096145;28;20429;-78
2021/09/23 11:22:37;;;;;;;12.30;10.13;;;22.60;1.00;;;;;;5092858;28;20524;-80
2021/09/23 11:25:08;;;;;;;11.57;10.00;;;22.40;1.00;;;;;;5094559;27;20501;-79
2021/09/23 11:27:35;;;;;;;10.50;9.40;;;22.30;1.00;;;;;;5096946;27;20427;-80
2021/09/23 11:30:05;;;;;;;10.40;9.37;;;22.60;1.00;;;;;;5095059;27;20999;-79
2021/09/23 11:32:31;;;;;;;11.93;9.13;;;22.90;1.00;;;;;;5097904;28;20449;-78
2021/09/23 11:35:01;;;;;;;10.43;8.53;;;23.00;1.00;;;;;;5091727;27;20531;-79
2021/09/23 11:37:32;;;;;;;14.57;8.80;;;22.90;1.00;;;;;;5096928;27;20467;-79
2021/09/23 11:40:01;;;;;;;10.40;8.50;;;22.90;1.00;;;;;;5090740;27;20539;-79
2021/09/23 11:42:31;;;;;;;9.30;8.20;;;22.90;1.00;;;;;;5086748;28;20465;-78
2021/09/23 11:45:08;;;;;;;10.70;8.60;;;22.40;1.00;;;;;;5082059;27;20451;-80
2021/09/23 11:47:47;;;;;;;12.17;9.17;;;22.00;1.00;;;;;;5080507;28;20475;-79
2021/09/23 11:50:29;;;;;;;7.77;6.97;;;21.50;1.00;;;;;;5078636;27;20539;-78
2021/09/23 11:53:01;;;;;;;8.20;7.40;;;21.30;1.00;;;;;;5091941;28;20523;-77
2021/09/23 11:55:28;;;;;;;10.07;7.70;;;21.20;1.00;;;;;;5080296;27;20750;-78
2021/09/23 11:58:07;;;;;;;7.97;7.17;;;21.10;1.00;;;;;;5079938;27;21389;-79
2021/09/23 12:00:38;;;;;;;8.07;6.10;;;21.20;1.00;;;;;;5094678;27;20545;-79
2021/09/23 12:03:06;;;;;;;7.90;6.00;;;21.20;1.00;;;;;;5079957;27;20535;-78
2021/09/23 12:05:33;;;;;;;5.73;5.10;;;21.20;1.00;;;;;;5078436;27;20443;-80
2021/09/23 12:08:11;;;;;;;7.10;5.93;;;21.10;1.00;;;;;;5080680;27;20457;-79
2021/09/23 12:10:52;;;;;;;5.03;4.50;;;21.10;1.00;;;;;;5083736;28;21396;-79
2021/09/23 12:13:32;;;;;;;6.10;4.73;;;21.30;1.00;;;;;;5081773;28;20466;-79
2021/09/23 12:16:02;;;;;;;5.03;4.53;;;21.20;1.00;;;;;;5084746;27;20522;-80
2021/09/23 12:18:30;;;;;;;4.57;4.17;;;21.30;1.00;;;;;;5086032;27;20464;-79
2021/09/23 12:20:58;;;;;;;6.73;4.67;;;21.40;1.00;;;;;;5078936;28;20458;-80
2021/09/23 12:23:28;;;;;;;8.40;4.10;;;21.60;1.00;;;;;;5084108;28;21824;-79
2021/09/23 12:26:15;;;;;;;6.67;3.90;;;21.80;1.00;;;;;;5082572;27;20461;-78
2021/09/23 12:28:45;;;;;;;4.87;3.80;;;21.70;1.00;;;;;;5082332;28;20472;-78
2021/09/23 12:31:15;;;;;;;4.17;3.40;;;21.60;1.00;;;;;;5087358;28;20554;-78
2021/09/23 12:33:53;;;;;;;4.70;3.47;;;21.30;1.00;;;;;;5083028;28;20543;-78
2021/09/23 12:36:25;;;;;;;4.73;3.20;;;21.20;1.00;;;;;;5086589;28;20647;-78
2021/09/23 12:39:06;;;;;;;4.43;3.03;;;21.10;1.00;;;;;;5085325;28;20461;-78
2021/09/23 12:41:33;;;;;;;5.00;3.63;;;21.00;1.00;;;;;;5081437;28;20448;-78
2021/09/23 12:44:04;;;;;;;4.87;3.70;;;21.10;1.00;;;;;;5083264;27;20550;-78
2021/09/23 12:46:33;;;;;;;6.10;3.43;;;21.10;1.00;;;;;;5090689;27;20914;-77
2021/09/23 12:49:13;;;;;;;4.43;3.20;;;20.90;1.00;;;;;;5086458;28;20610;-78
2021/09/23 12:51:40;;;;;;;5.77;3.50;;;21.00;1.00;;;;;;5104437;27;20520;-82